Historyczne dane pomiarowe

Dodano dane terminowe – wersja testowa.

Dane z okresu 1951-2019

Wersja bazy: 1.34 [2019-03-16, lista zmian], aktualizacja planowana na 2019-04-15

Dane meteo z obszaru Polski uzyskane na podstawie danych udostępnionych przez Instytut Meteorologii i Gospodarki Wodnej – Państwowy Instytut Badawczy.

 

Wybierz Datę:    

       

TemperaturaWilgotnośćWiatrCiśnienieOpadyŚniegCzas trwania zjawisk
 Stacja t tx tn tng RH VA  wxwx mslp ppp RRR   cm mm wxwxwxwxwxwxwx
1983-08-14 12.8 17.7 6.9 4.6 83.5- 5.3 2.0---- 0.6------------
1983-08-13 15.0 21.4 11.3 11.1 82.8- 8.0 3.7---- 11.7------------
1983-08-12 19.6 26.7 12.6 10.2 73.0- 1.0 0.7---- 10.3------------
1983-08-11 20.6 26.6 15.0 14.3 69.5- 2.3 1.0---- 0.0------------
1983-08-10 18.6 25.1 11.6 9.5 76.8- 1.0 1.7---- 0.0------------
1983-08-09 16.8 24.6 12.9 10.7 89.5- 5.3 1.7---- 26.1------------
1983-08-08 16.3 21.6 12.8 11.2 91.0- 5.3 2.7---- 1.2------------
1983-08-07 15.7 20.4 11.8 11.0 89.0- 6.3 1.7---- 5.4------------
1983-08-06 15.0 18.2 11.5 9.9 77.8- 7.7 2.0---- 0.7------------
1983-08-05 13.0 17.8 7.9 6.6 74.5- 4.7 3.0---- 0.0------------
1983-08-04 10.8 16.1 10.0 9.6 94.8- 8.0 3.0---- 0.3------------
1983-08-03 18.2 22.7 16.0 15.7 82.5- 5.7 4.0---- 2.7------------
1983-08-02 20.0 26.4 16.7 14.3 77.5- 7.3 2.7---- 16.4------------
1983-08-01 21.9 30.4 13.1 10.7 55.5- 0.0 3.3---- 0.0------------
1983-07-31 18.2 26.0 7.4 4.5 60.5- 0.0 1.7---- 0.0------------
1983-07-30 18.6 23.9 14.7 14.7 78.5- 3.7 4.3---- 0.0------------
1983-07-29 19.3 25.0 12.9 10.3 68.0- 6.7 2.3---- 3.2------------
1983-07-28 24.4 29.3 20.1 19.7 55.3- 2.7 2.7---- 0.0------------
1983-07-27 23.2 32.6 12.9 9.6 60.0- 0.0 1.3---- 0.0------------
1983-07-26 21.5 28.6 10.3 7.9 57.8- 0.3 1.0---- 0.0------------
1983-07-25 15.9 21.4 9.8 6.1 73.3- 5.0 0.3---- 0.0------------
1983-07-24 16.0 22.3 9.4 7.0 78.5- 7.7 1.0---- 0.2------------
1983-07-23 17.5 22.4 11.9 10.9 69.3- 4.7 3.7---- 0.0------------
1983-07-22 11.7 14.3 7.9 4.4 86.8- 8.0 3.3---- 1.1------------
1983-07-21 12.9 17.4 9.3 8.1 70.0- 2.7 4.0---- 0.0------------
1983-07-20 15.4 26.3 12.2 12.1 87.0- 6.7 3.3---- 1.3------------
1983-07-19 24.8 29.4 18.6 14.7 56.0- 2.3 2.0---- 9.2------------
1983-07-18 23.8 32.7 13.0 9.6 54.8- 0.3 1.0---- 0.0------------
1983-07-17 20.9 27.3 13.9 10.8 67.5- 1.7 2.7---- 0.0------------
1983-07-16 20.8 28.2 13.2 10.3 67.8- 3.3 1.3---- 0.0------------
1983-07-15 19.7 26.1 13.5 9.5 69.5- 1.3 1.3---- 0.0------------
1983-07-14 19.1 23.4 15.8 14.6 83.0- 6.7 2.7---- 1.7------------
1983-07-13 20.6 25.6 15.1 13.8 74.8- 5.0 4.0---- 5.3------------
1983-07-12 18.7 25.6 16.0 15.2 81.8- 4.7 2.7---- 0.4------------
1983-07-11 18.7 25.3 16.2 13.1 79.3- 8.0 2.7---- 5.7------------
1983-07-10 23.3 29.4 14.7 11.8 52.8- 1.0 3.3---- 0.0------------
1983-07-09 22.0 28.4 12.6 8.9 55.3- 1.0 1.7---- 0.0------------
1983-07-08 22.5 28.2 14.1 10.9 40.5- 0.0 2.3---- 0.0------------
1983-07-07 22.9 29.5 15.2 10.8 53.3- 1.0 3.0---- 0.0------------
1983-07-06 22.0 28.7 14.4 10.9 55.5- 1.3 2.0---- 0.0------------
1983-07-05 19.6 26.4 11.4 8.2 67.8- 1.7 2.3---- 0.0------------
1983-07-04 19.8 26.3 12.5 9.5 64.5- 1.3 2.0---- 0.0------------
1983-07-03 18.7 24.4 11.3 8.1 67.3- 4.3 0.7---- 0.0------------
1983-07-02 18.2 22.3 13.3 10.1 76.3- 4.7 2.7---- 0.0------------
1983-07-01 19.8 25.7 12.5 9.0 67.0- 1.7 0.7---- 0.0------------
1983-06-30 16.5 23.1 8.0 5.3 64.8- 2.7 2.3---- 0.0------------
1983-06-29 13.8 18.7 7.6 4.6 68.3- 1.7 1.3---- 0.0------------
1983-06-28 15.9 22.8 14.0 14.0 86.0- 8.0 1.7---- 9.9------------
1983-06-27 21.0 26.3 15.7 13.0 71.0- 5.7 3.0---- 18.2------------
1983-06-26 20.3 25.8 15.5 12.7 74.8- 5.0 2.0---- 0.0------------
1983-06-25 21.1 27.6 14.5 8.9 57.5- 1.3 3.0---- 6.3------------
1983-06-24 17.9 25.7 7.4 3.1 57.3- 0.0 1.7---- 0.0------------
1983-06-23 15.0 21.3 7.6 5.3 52.8- 0.0 2.0---- 0.0------------
1983-06-22 15.8 21.8 10.7 9.8 56.8- 0.0 3.7---- 0.0------------
1983-06-21 19.4 25.1 12.2 9.9 63.8- 1.0 2.0---- 0.0------------
1983-06-20 17.6 22.3 15.1 14.3 86.8- 6.7 1.7---- 0.3------------
1983-06-19 13.8 18.0 11.4 11.4 96.3- 8.0 3.0---- 2.1------------
1983-06-18 11.3 13.3 8.9 8.7 91.5- 8.0 2.0---- 8.7------------
1983-06-17 11.8 14.3 9.2 8.7 74.5- 7.7 4.3---- 3.0------------
1983-06-16 11.3 14.3 8.5 8.1 78.8- 8.0 3.7---- 0.0------------
318.2 ms

 

Źródłem pochodzenia danych jest Instytut Meteorologii i Gospodarki Wodnej – Państwowy Instytut Badawczy. Dane Instytutu Meteorologii i Gospodarki Wodnej – Państwowego Instytutu Badawczego zostały przetworzone.

Dane źródłowe można odnaleźć na stronie https://dane.imgw.pl